createdAt,value
2018-07-12T08:02:36.591Z,0
2018-07-12T08:07:36.098Z,0
2018-07-12T08:10:35.595Z,0
2018-07-12T08:11:35.572Z,0
2018-07-12T08:13:37.695Z,0
2018-07-12T08:14:37.635Z,0
2018-07-12T08:15:52.214Z,0
2018-07-12T08:17:22.848Z,27.222595
2018-07-12T08:23:42.329Z,27.101746
2018-07-12T08:24:42.267Z,27.1521
2018-07-12T08:25:42.215Z,27.272949
2018-07-12T08:26:42.225Z,27.333374
2018-07-12T08:27:42.114Z,27.333374
2018-07-12T08:28:42.089Z,30.535889
2018-07-12T08:29:42.293Z,34.080811
2018-07-12T08:30:41.889Z,36.507874
2018-07-12T08:31:41.791Z,38.300476
2018-07-12T08:32:41.673Z,39.649963
2018-07-12T08:33:41.540Z,40.646973
2018-07-12T08:34:41.417Z,41.452637
2018-07-12T08:35:41.300Z,42.187805
2018-07-12T08:36:41.125Z,42.741699
2018-07-12T08:37:40.962Z,43.13446
2018-07-12T08:38:40.807Z,42.318726
2018-07-12T08:39:40.662Z,42.88269
2018-07-12T08:40:40.546Z,43.809204
2018-07-12T08:41:40.362Z,44.494019
2018-07-12T08:42:40.181Z,45.098267
2018-07-12T08:43:40.505Z,45.692444
2018-07-12T08:44:39.775Z,46.236267
2018-07-12T08:45:39.583Z,46.729736
2018-07-12T08:46:39.415Z,47.182922
2018-07-12T08:47:39.191Z,47.646179
2018-07-12T08:48:38.987Z,48.018799
2018-07-12T08:49:38.766Z,48.401489
2018-07-12T08:50:38.558Z,48.723755
2018-07-12T08:51:38.342Z,49.056091
2018-07-12T08:52:38.119Z,49.388428
2018-07-12T08:53:37.904Z,49.740906
2018-07-12T08:54:37.696Z,50.093384
2018-07-12T08:55:37.416Z,50.466003
2018-07-12T08:56:37.174Z,50.818481
2018-07-12T08:57:36.929Z,51.170959
2018-07-12T08:58:36.684Z,51.543579
2018-07-12T08:59:36.429Z,51.916199
2018-07-12T09:00:36.142Z,52.268677
2018-07-12T09:01:35.883Z,52.580872
2018-07-12T09:02:35.629Z,52.742004
2018-07-12T09:03:35.352Z,52.94342
2018-07-12T09:04:35.090Z,53.094482
2018-07-12T09:05:34.829Z,48.572693
2018-07-12T09:06:34.552Z,45.722656
2018-07-12T09:07:34.289Z,44.181824
2018-07-12T09:08:34.045Z,43.275452
2018-07-12T09:09:33.789Z,42.822266
2018-07-12T09:10:33.527Z,42.62085
2018-07-12T09:11:33.285Z,42.530212
2018-07-12T09:12:33.011Z,42.510071
2018-07-12T09:13:32.753Z,42.580566
2018-07-12T09:14:32.515Z,42.731628
2018-07-12T09:15:32.240Z,42.892761
2018-07-12T09:16:31.991Z,43.033752
2018-07-12T09:17:32.115Z,43.194885
2018-07-12T09:18:31.516Z,43.295593
2018-07-12T09:19:31.261Z,43.37616
2018-07-12T09:20:31.042Z,43.37616
2018-07-12T09:21:30.769Z,43.426514
2018-07-12T09:22:30.506Z,43.426514
2018-07-12T09:23:30.282Z,43.547363
2018-07-12T09:24:29.975Z,43.678284
2018-07-12T09:25:29.787Z,43.799133
2018-07-12T09:26:29.443Z,43.869629
2018-07-12T09:27:29.193Z,43.889771
2018-07-12T09:28:28.967Z,43.980408
2018-07-12T09:29:28.698Z,44.111328
2018-07-12T09:30:28.400Z,44.26239
2018-07-12T09:31:28.158Z,44.403381
2018-07-12T09:32:27.885Z,44.584656
2018-07-12T09:33:27.626Z,44.735718
2018-07-12T09:34:27.363Z,44.806213
2018-07-12T09:35:27.140Z,44.866638
2018-07-12T09:36:26.867Z,44.896851
2018-07-12T09:37:26.584Z,44.876709
2018-07-12T09:38:26.302Z,44.806213
2018-07-12T09:39:26.069Z,44.735718
2018-07-12T09:40:25.834Z,44.705505
2018-07-12T09:41:25.716Z,44.705505
2018-07-12T09:42:25.328Z,44.755859
2018-07-12T09:43:25.135Z,44.866638
2018-07-12T09:44:24.847Z,44.997559
2018-07-12T09:45:24.586Z,45.078125
2018-07-12T09:46:24.335Z,45.198975
2018-07-12T09:47:24.131Z,45.26947
2018-07-12T09:48:23.816Z,45.370178
2018-07-12T09:49:23.666Z,45.39032
2018-07-12T09:50:23.278Z,45.370178
2018-07-12T09:51:23.012Z,45.400391
2018-07-12T09:52:22.738Z,45.430603
2018-07-12T09:53:22.518Z,45.501099
2018-07-12T09:54:22.221Z,45.561523
2018-07-12T09:55:21.989Z,45.621948
2018-07-12T09:56:21.917Z,45.742798
2018-07-12T09:57:21.459Z,45.873718
2018-07-12T09:58:21.211Z,46.065063
2018-07-12T09:59:20.931Z,46.236267
2018-07-12T10:00:20.628Z,46.407471
2018-07-12T10:01:20.432Z,46.578674
2018-07-12T10:02:20.121Z,46.759949
2018-07-12T10:03:19.836Z,46.941223
2018-07-12T10:04:19.570Z,47.112427
2018-07-12T10:05:19.316Z,47.303772
2018-07-12T10:06:19.017Z,47.424622
2018-07-12T10:07:18.734Z,47.495117
2018-07-12T10:08:18.461Z,47.52533
2018-07-12T10:09:18.165Z,47.52533
2018-07-12T10:10:17.894Z,47.555542
2018-07-12T10:11:17.620Z,47.636108
2018-07-12T10:12:17.325Z,47.767029
2018-07-12T10:13:17.030Z,47.958374
2018-07-12T10:14:16.734Z,48.169861
2018-07-12T10:15:16.458Z,48.361206
2018-07-12T10:16:16.158Z,48.562622
2018-07-12T10:17:15.902Z,48.653259
2018-07-12T10:18:15.591Z,48.66333
2018-07-12T10:19:15.295Z,48.633118
2018-07-12T10:20:15.003Z,48.693542
2018-07-12T10:21:14.711Z,48.592834
2018-07-12T10:22:14.415Z,48.562622
2018-07-12T10:23:14.132Z,48.572693
2018-07-12T10:24:13.838Z,48.623047
2018-07-12T10:25:13.525Z,48.66333
2018-07-12T10:26:13.216Z,48.693542
2018-07-12T10:27:12.920Z,48.653259
2018-07-12T10:28:12.625Z,48.66333
2018-07-12T10:29:12.426Z,48.713684
2018-07-12T10:30:12.027Z,48.723755
2018-07-12T10:31:11.727Z,48.774109
2018-07-12T10:32:11.448Z,48.78418
2018-07-12T10:33:11.111Z,48.79425
2018-07-12T10:34:10.812Z,48.844604
2018-07-12T10:35:10.538Z,48.9151
2018-07-12T10:36:10.209Z,49.005737
2018-07-12T10:37:09.937Z,49.16687
2018-07-12T10:38:09.617Z,49.348145
2018-07-12T10:39:10.295Z,49.519348
2018-07-12T10:40:08.988Z,49.700623
2018-07-12T10:41:08.739Z,49.92218
2018-07-12T10:42:08.378Z,50.093384
2018-07-12T10:43:08.061Z,50.264587
2018-07-12T10:44:07.795Z,50.42572
2018-07-12T10:45:07.421Z,50.526428
2018-07-12T10:46:07.098Z,50.526428
2018-07-12T10:47:07.275Z,50.576782
2018-07-12T10:48:06.483Z,50.647278
2018-07-12T10:49:06.152Z,50.808411
2018-07-12T10:50:05.834Z,50.979614
2018-07-12T10:51:05.509Z,51.191101
2018-07-12T10:52:05.189Z,51.412659
2018-07-12T10:53:04.864Z,51.664429
2018-07-12T10:54:04.544Z,51.885986
2018-07-12T10:55:04.211Z,52.117615
2018-07-12T10:56:03.881Z,52.238464
2018-07-12T10:57:03.567Z,52.278748
2018-07-12T10:58:03.245Z,52.30896
2018-07-12T10:59:02.950Z,52.319031
2018-07-12T11:00:02.586Z,52.339172
2018-07-12T11:01:02.245Z,52.359314
2018-07-12T11:02:01.930Z,52.198181
2018-07-12T11:03:01.601Z,52.147827
2018-07-12T11:04:01.259Z,52.107544
2018-07-12T11:05:00.952Z,51.966553
2018-07-12T11:06:00.597Z,51.825562
2018-07-12T11:07:00.252Z,51.694641
2018-07-12T11:07:59.926Z,51.55365
2018-07-12T11:08:59.639Z,51.473083
2018-07-12T11:09:59.258Z,51.362305
2018-07-12T11:10:58.937Z,51.271667
2018-07-12T11:11:58.601Z,51.100464
2018-07-12T11:12:58.262Z,50.838623
2018-07-12T11:13:57.948Z,50.707703
2018-07-12T11:14:57.644Z,50.687561
2018-07-12T11:15:57.312Z,50.768127
2018-07-12T11:16:57.002Z,50.858765
2018-07-12T11:17:56.708Z,50.999756
2018-07-12T11:18:56.326Z,51.029968
2018-07-12T11:19:56.028Z,51.029968
2018-07-12T11:20:55.699Z,51.040039
2018-07-12T11:21:55.373Z,50.899048
2018-07-12T11:22:55.351Z,50.747986
2018-07-12T11:23:54.739Z,50.617065
2018-07-12T11:24:54.403Z,50.54657
2018-07-12T11:25:54.075Z,50.556641
2018-07-12T11:26:53.748Z,50.596924
2018-07-12T11:27:53.425Z,50.707703
2018-07-12T11:28:53.137Z,50.838623
2018-07-12T11:29:52.776Z,50.909119
2018-07-12T11:30:52.437Z,50.959473
2018-07-12T11:31:52.108Z,51.100464
2018-07-12T11:32:51.777Z,51.100464
2018-07-12T11:33:51.447Z,51.090393
2018-07-12T11:34:51.143Z,50.909119
2018-07-12T11:35:50.822Z,50.586853
2018-07-12T11:36:50.494Z,50.123596
2018-07-12T11:37:50.183Z,49.630127
2018-07-12T11:38:49.872Z,49.136658
2018-07-12T11:39:49.551Z,48.774109
2018-07-12T11:40:49.267Z,48.572693
2018-07-12T11:41:48.922Z,48.502197
2018-07-12T11:42:48.615Z,48.592834
2018-07-12T11:43:48.306Z,48.743896
2018-07-12T11:44:48.092Z,48.985596
2018-07-12T11:45:47.685Z,49.227295
2018-07-12T11:46:47.359Z,49.489136
2018-07-12T11:47:47.048Z,49.821472
2018-07-12T11:48:46.702Z,50.204163
2018-07-12T11:49:46.377Z,50.455933
2018-07-12T11:50:46.093Z,50.617065
2018-07-12T11:51:45.738Z,50.687561
2018-07-12T11:52:45.585Z,50.627136
2018-07-12T11:53:45.091Z,50.466003
2018-07-12T11:54:44.772Z,50.17395
2018-07-12T11:55:44.453Z,49.821472
2018-07-12T11:56:44.135Z,49.41864
2018-07-12T11:57:43.858Z,48.965454
2018-07-12T11:58:43.545Z,48.471985
2018-07-12T11:59:43.223Z,47.988586
2018-07-12T12:00:42.923Z,47.52533
2018-07-12T12:01:42.687Z,47.072144
2018-07-12T12:02:42.310Z,46.598816
2018-07-12T12:03:42.021Z,46.266479
2018-07-12T12:04:41.727Z,46.004639
2018-07-12T12:05:41.417Z,45.843506
2018-07-12T12:06:41.150Z,45.783081
2018-07-12T12:07:40.836Z,45.823364
2018-07-12T12:08:40.528Z,45.964355
2018-07-12T12:09:40.254Z,46.155701
2018-07-12T12:10:39.963Z,46.447754
2018-07-12T12:11:39.653Z,46.759949
2018-07-12T12:12:39.354Z,47.102356
2018-07-12T12:13:39.053Z,47.414551
2018-07-12T12:14:38.752Z,47.736816
2018-07-12T12:15:38.439Z,48.02887
2018-07-12T12:16:38.147Z,48.210144
2018-07-12T12:17:37.840Z,48.381348
2018-07-12T12:18:37.559Z,48.633118
2018-07-12T12:19:37.241Z,48.9151
2018-07-12T12:20:36.955Z,49.126587
2018-07-12T12:21:36.660Z,49.358215
2018-07-12T12:22:36.397Z,49.599915
2018-07-12T12:23:36.120Z,49.871826
2018-07-12T12:24:35.748Z,50.184021
2018-07-12T12:25:35.437Z,50.405579
2018-07-12T12:26:36.135Z,50.274658
2018-07-12T12:27:34.928Z,50.012817
2018-07-12T12:28:34.540Z,49.871826
2018-07-12T12:29:34.222Z,49.831543
2018-07-12T12:30:33.924Z,49.871826
2018-07-12T12:31:33.576Z,49.982605
2018-07-12T12:32:33.287Z,50.113525
2018-07-12T12:33:33.016Z,50.304871
2018-07-12T12:34:32.669Z,50.54657
2018-07-12T12:35:32.326Z,50.818481
2018-07-12T12:36:32.017Z,51.100464
2018-07-12T12:37:31.692Z,51.362305
2018-07-12T12:38:31.367Z,51.55365
2018-07-12T12:39:31.046Z,51.604004
2018-07-12T12:40:30.733Z,51.573792
2018-07-12T12:41:30.377Z,51.412659
2018-07-12T12:42:30.050Z,51.05011
2018-07-12T12:43:29.728Z,50.496216
2018-07-12T12:44:29.408Z,50.073242
2018-07-12T12:45:29.083Z,49.750977
2018-07-12T12:46:28.829Z,49.398499
2018-07-12T12:47:28.461Z,49.106445
2018-07-12T12:48:28.142Z,48.774109
2018-07-12T12:49:27.847Z,48.220215
2018-07-12T12:50:27.546Z,47.65625
2018-07-12T12:51:27.256Z,47.062073
2018-07-12T12:52:26.976Z,46.377258
2018-07-12T12:53:26.702Z,45.702515
2018-07-12T12:54:26.429Z,45.158691
2018-07-12T12:55:26.142Z,44.705505
2018-07-12T12:56:25.898Z,44.292603
2018-07-12T12:57:25.603Z,43.919983
2018-07-12T12:58:25.374Z,43.607788
2018-07-12T12:59:25.090Z,43.275452
2018-07-12T13:00:24.811Z,42.993469
2018-07-12T13:01:24.558Z,42.701416
2018-07-12T13:02:24.328Z,42.409363
2018-07-12T13:03:24.057Z,42.137451
2018-07-12T13:04:23.828Z,41.895752
2018-07-12T13:05:23.640Z,41.654053
2018-07-12T13:06:23.345Z,41.49292
2018-07-12T13:07:23.068Z,41.341858
2018-07-12T13:08:22.926Z,41.190796
2018-07-12T13:09:22.569Z,41.090088
2018-07-12T13:10:22.327Z,41.029663
2018-07-12T13:11:22.079Z,40.949097
2018-07-12T13:12:21.826Z,40.86853
2018-07-12T13:13:21.571Z,40.767822
2018-07-12T13:14:21.367Z,40.646973
2018-07-12T13:15:22.106Z,40.465698
2018-07-12T13:16:20.958Z,40.314636
2018-07-12T13:17:20.665Z,40.153503
2018-07-12T13:18:20.413Z,40.022583
2018-07-12T13:19:20.176Z,39.901733
2018-07-12T13:20:19.933Z,39.629822
2018-07-12T13:21:19.743Z,39.508972
2018-07-12T13:22:19.776Z,39.327698
2018-07-12T13:23:19.266Z,39.146423
2018-07-12T13:24:19.067Z,38.985291
2018-07-12T13:25:18.865Z,38.844299
2018-07-12T13:26:18.649Z,38.683167
2018-07-12T13:27:18.410Z,38.652954
2018-07-12T13:28:18.201Z,38.743591
2018-07-12T13:29:17.938Z,38.804016
2018-07-12T13:30:17.758Z,38.864441
2018-07-12T13:31:17.490Z,38.945007
2018-07-12T13:32:17.258Z,38.995361
2018-07-12T13:33:17.054Z,38.985291
2018-07-12T13:34:16.852Z,38.965149
2018-07-12T13:35:16.631Z,38.894653
2018-07-12T13:36:16.410Z,38.824158
2018-07-12T13:37:16.184Z,38.683167
2018-07-12T13:38:15.965Z,38.612671
2018-07-12T13:39:15.792Z,38.522034
2018-07-12T13:40:15.551Z,38.501892
2018-07-12T13:41:15.336Z,38.461609
2018-07-12T13:42:15.137Z,38.401184
2018-07-12T13:43:14.931Z,38.391113
2018-07-12T13:44:14.716Z,38.340759
2018-07-12T13:45:14.511Z,38.270264
2018-07-12T13:46:14.321Z,38.139343
2018-07-12T13:47:14.112Z,38.018494
2018-07-12T13:48:13.914Z,37.897644
2018-07-12T13:49:13.714Z,37.71637
2018-07-12T13:50:13.507Z,37.71637
2018-07-12T13:51:13.319Z,37.736511
2018-07-12T13:52:13.182Z,37.736511
2018-07-12T13:53:12.920Z,37.837219
2018-07-12T13:54:12.705Z,38.018494
2018-07-12T13:55:12.525Z,38.22998
2018-07-12T13:56:12.317Z,38.582458
2018-07-12T13:57:12.102Z,38.995361
2018-07-12T13:58:12.039Z,39.508972
2018-07-12T13:59:11.687Z,39.972229
2018-07-12T14:00:11.473Z,40.465698
2018-07-12T14:01:11.265Z,40.777893
2018-07-12T14:02:11.056Z,41.090088
2018-07-12T14:03:10.831Z,41.311646
2018-07-12T14:04:10.651Z,41.502991
2018-07-12T14:05:10.436Z,41.573486
2018-07-12T14:06:10.209Z,41.593628
2018-07-12T14:07:09.988Z,41.563416
2018-07-12T14:08:09.795Z,41.452637
2018-07-12T14:09:09.581Z,41.341858
2018-07-12T14:10:09.371Z,41.150513
2018-07-12T14:11:09.142Z,40.969238
2018-07-12T14:12:08.930Z,40.747681
2018-07-12T14:13:08.715Z,40.576477
2018-07-12T14:14:08.496Z,40.48584
2018-07-12T14:15:08.391Z,40.495911
2018-07-12T14:16:08.115Z,40.61676
2018-07-12T14:17:07.864Z,40.838318
2018-07-12T14:18:07.674Z,41.059875
2018-07-12T14:19:07.441Z,41.402283
2018-07-12T14:20:07.190Z,41.654053
2018-07-12T14:21:06.967Z,41.895752
2018-07-12T14:22:06.758Z,42.016602
2018-07-12T14:23:06.540Z,42.006531
2018-07-12T14:24:06.326Z,41.976318
2018-07-12T14:25:06.101Z,41.966248
2018-07-12T14:26:05.895Z,42.006531
2018-07-12T14:27:05.658Z,42.167664
2018-07-12T14:28:05.479Z,42.409363
2018-07-12T14:29:05.240Z,42.701416
2018-07-12T14:30:04.987Z,43.043823
2018-07-12T14:31:04.791Z,43.416443
2018-07-12T14:32:04.555Z,43.809204
2018-07-12T14:33:04.318Z,44.201965
2018-07-12T14:34:04.077Z,44.63501
2018-07-12T14:35:03.801Z,45.088196
2018-07-12T14:36:03.555Z,45.480957
2018-07-12T14:37:03.310Z,45.783081
2018-07-12T14:38:03.050Z,46.065063
2018-07-12T14:39:02.808Z,46.357117
2018-07-12T14:40:02.561Z,46.498108
2018-07-12T14:41:02.292Z,46.538391
2018-07-12T14:42:02.060Z,46.689453
2018-07-12T14:43:01.791Z,46.890869
2018-07-12T14:44:01.537Z,47.041931
2018-07-12T14:45:01.276Z,47.112427
2018-07-12T14:46:02.005Z,47.253418
2018-07-12T14:47:00.783Z,47.414551
2018-07-12T14:48:00.448Z,47.615967
2018-07-12T14:49:00.194Z,47.807312
2018-07-12T14:49:59.937Z,47.998657
2018-07-12T14:50:59.661Z,48.240356
2018-07-12T14:51:59.371Z,48.471985
2018-07-12T14:52:59.092Z,48.66333
2018-07-12T14:53:58.823Z,48.864746
2018-07-12T14:54:58.559Z,49.03595
2018-07-12T14:55:58.265Z,49.066162
2018-07-12T14:56:58.018Z,49.16687
2018-07-12T14:57:57.728Z,49.126587
2018-07-12T14:58:57.451Z,48.985596
2018-07-12T14:59:57.164Z,48.693542
2018-07-12T15:00:56.853Z,48.471985
2018-07-12T15:01:56.564Z,48.310852
2018-07-12T15:02:56.364Z,48.149719
2018-07-12T15:03:56.024Z,47.948303
2018-07-12T15:04:55.755Z,47.646179
2018-07-12T15:05:55.492Z,47.454834
2018-07-12T15:06:55.216Z,47.203064
2018-07-12T15:07:54.929Z,46.991577
2018-07-12T15:08:54.804Z,46.790161
2018-07-12T15:09:54.415Z,46.639099
2018-07-12T15:10:54.123Z,46.568604
2018-07-12T15:11:53.839Z,46.52832
2018-07-12T15:12:53.576Z,46.548462
2018-07-12T15:13:53.298Z,46.659241
2018-07-12T15:14:53.020Z,46.739807
2018-07-12T15:15:52.772Z,46.880798
2018-07-12T15:16:52.551Z,46.951294
2018-07-12T15:17:52.177Z,47.041931
2018-07-12T15:18:51.916Z,47.082214
2018-07-12T15:19:51.642Z,47.072144
2018-07-12T15:20:51.360Z,47.041931
2018-07-12T15:21:51.096Z,46.921082
2018-07-12T15:22:50.819Z,46.759949
2018-07-12T15:23:50.528Z,46.498108
2018-07-12T15:24:50.278Z,46.195984
2018-07-12T15:25:50.036Z,45.853577
2018-07-12T15:26:49.757Z,45.460815
2018-07-12T15:27:49.620Z,45.078125
2018-07-12T15:28:49.236Z,44.776001
2018-07-12T15:29:48.984Z,44.473877
2018-07-12T15:30:48.737Z,44.151611
2018-07-12T15:31:48.474Z,43.859558
2018-07-12T15:32:48.210Z,43.547363
2018-07-12T15:33:47.974Z,43.25531
2018-07-12T15:34:47.710Z,42.953186
2018-07-12T15:35:47.456Z,42.671204
2018-07-12T15:36:47.221Z,42.348938
2018-07-12T15:37:46.974Z,42.006531
2018-07-12T15:38:46.724Z,41.724548
2018-07-12T15:39:46.507Z,41.432495
2018-07-12T15:40:46.248Z,41.160583
2018-07-12T15:41:46.019Z,40.908813
2018-07-12T15:42:45.769Z,40.657043
2018-07-12T15:43:45.574Z,40.405273
2018-07-12T15:44:45.330Z,40.163574
2018-07-12T15:45:45.127Z,39.931946
2018-07-12T15:46:44.880Z,39.720459
2018-07-12T15:47:44.656Z,39.579468
2018-07-12T15:48:44.430Z,39.488831
2018-07-12T15:49:44.197Z,39.47876
2018-07-12T15:50:43.964Z,39.508972
2018-07-12T15:51:44.775Z,39.559326
2018-07-12T15:52:43.564Z,39.599609
2018-07-12T15:53:43.331Z,39.629822
2018-07-12T15:54:43.181Z,39.649963
2018-07-12T15:55:42.898Z,39.589539
2018-07-12T15:56:42.662Z,39.529114
2018-07-12T15:57:42.467Z,39.428406
2018-07-12T15:58:42.226Z,39.378052
2018-07-12T15:59:42.037Z,39.378052
2018-07-12T16:00:41.818Z,39.297485
2018-07-12T16:01:41.608Z,39.216919
2018-07-12T16:02:41.461Z,39.035645
2018-07-12T16:03:41.459Z,38.844299
2018-07-12T16:04:41.026Z,38.652954
2018-07-12T16:05:40.819Z,38.401184
2018-07-12T16:06:40.640Z,38.149414
2018-07-12T16:07:40.470Z,37.867432
2018-07-12T16:08:40.281Z,37.635803
2018-07-12T16:09:40.370Z,37.454529
2018-07-12T16:10:39.884Z,37.21283
2018-07-12T16:11:39.691Z,37.021484
2018-07-12T16:12:39.512Z,36.789856
2018-07-12T16:13:39.331Z,36.548157
2018-07-12T16:14:39.150Z,36.346741
2018-07-12T16:15:39.244Z,36.0849
2018-07-12T16:16:39.797Z,35.883484
2018-07-12T16:17:38.634Z,35.661926
2018-07-12T16:18:38.473Z,35.46051
2018-07-12T16:19:38.341Z,35.218811
2018-07-12T16:20:38.166Z,34.95697
2018-07-12T16:21:38.295Z,34.725342
2018-07-12T16:22:37.865Z,34.503784
2018-07-12T16:23:37.710Z,34.231873
2018-07-12T16:24:37.560Z,33.980103
2018-07-12T16:25:37.427Z,33.768616
2018-07-12T16:26:37.274Z,33.526917
2018-07-12T16:27:37.145Z,33.265076
2018-07-12T16:28:37.009Z,33.043518
2018-07-12T16:29:36.920Z,32.832031
2018-07-12T16:30:36.775Z,32.680969
2018-07-12T16:31:36.638Z,32.590332
2018-07-12T16:32:36.505Z,32.479553
2018-07-12T16:33:36.632Z,32.398987
2018-07-12T16:34:36.238Z,32.358704
2018-07-12T16:35:36.144Z,32.30835
2018-07-12T16:36:36.019Z,32.227783
2018-07-12T16:37:35.889Z,32.157288
2018-07-12T16:38:35.786Z,32.106934
2018-07-12T16:39:35.673Z,31.955872
2018-07-12T16:40:35.533Z,31.955872
2018-07-12T16:41:35.427Z,31.784668
2018-07-12T16:42:35.310Z,31.774597
2018-07-12T16:43:35.182Z,31.653748
2018-07-12T16:44:35.076Z,31.583252
2018-07-12T16:45:34.992Z,31.512756
2018-07-12T16:46:34.872Z,31.422119
2018-07-12T16:47:34.760Z,31.31134
2018-07-12T16:48:34.690Z,31.210632
2018-07-12T16:49:34.541Z,31.140137
2018-07-12T16:50:34.451Z,31.019287
2018-07-12T16:51:34.391Z,30.918579
2018-07-12T16:52:34.269Z,30.827942
2018-07-12T16:53:34.160Z,30.686951
2018-07-12T16:54:34.168Z,30.586243
2018-07-12T16:55:33.973Z,30.495605
2018-07-12T16:56:33.876Z,30.394897
2018-07-12T16:57:33.778Z,30.314331
2018-07-12T16:58:33.685Z,30.213623
2018-07-12T16:59:33.600Z,30.133057
2018-07-12T17:00:33.499Z,30.062561
2018-07-12T17:01:33.404Z,30.032349
2018-07-12T17:02:33.307Z,29.951782
2018-07-12T17:03:33.216Z,29.901428
2018-07-12T17:04:33.129Z,29.841003
2018-07-12T17:05:33.045Z,29.760437
2018-07-12T17:06:32.958Z,29.710083
2018-07-12T17:07:32.892Z,29.679871
2018-07-12T17:08:33.095Z,29.629517
2018-07-12T17:09:32.720Z,29.589233
2018-07-12T17:10:32.633Z,29.559021
2018-07-12T17:11:32.527Z,29.528809
2018-07-12T17:12:32.447Z,29.488525
2018-07-12T17:13:32.368Z,29.438171
2018-07-12T17:14:32.261Z,29.407959
2018-07-12T17:15:32.204Z,29.357605
2018-07-12T17:16:32.111Z,29.357605
2018-07-12T17:17:32.014Z,29.317322
2018-07-12T17:18:31.921Z,29.287109
2018-07-12T17:19:31.830Z,29.236755
2018-07-12T17:20:31.713Z,29.216614
2018-07-12T17:21:31.622Z,29.186401
2018-07-12T17:22:31.523Z,29.16626
2018-07-12T17:23:31.435Z,29.125977
2018-07-12T17:24:31.337Z,29.095764
2018-07-12T17:25:31.258Z,29.04541
2018-07-12T17:26:31.164Z,29.005127
2018-07-12T17:27:31.103Z,28.984985
2018-07-12T17:28:31.012Z,28.964844
2018-07-12T17:29:30.910Z,28.91449
2018-07-12T17:30:30.833Z,28.91449
2018-07-12T17:31:30.760Z,28.864136
2018-07-12T17:32:30.676Z,28.843994
2018-07-12T17:33:30.629Z,28.823853
2018-07-12T17:34:30.489Z,28.79364
2018-07-12T17:35:30.421Z,28.783569
2018-07-12T17:36:30.320Z,28.753357
2018-07-12T17:37:30.232Z,28.723145
2018-07-12T17:38:30.144Z,28.672791
2018-07-12T17:39:30.069Z,28.642578
2018-07-12T17:40:29.995Z,28.602295
2018-07-12T17:41:29.914Z,28.521729
2018-07-12T17:42:29.835Z,28.481445
2018-07-12T17:43:29.772Z,28.41095
2018-07-12T17:44:29.693Z,28.330383
2018-07-12T17:45:29.655Z,28.269958
2018-07-12T17:46:29.555Z,28.219604
2018-07-12T17:47:29.635Z,28.16925
2018-07-12T17:48:29.422Z,28.098755
2018-07-12T17:49:29.345Z,28.048401
2018-07-12T17:50:29.275Z,28.018188
2018-07-12T17:51:29.221Z,27.977905
2018-07-12T17:52:30.165Z,27.91748
2018-07-12T17:53:29.081Z,27.887268
2018-07-12T17:54:29.022Z,27.816772
2018-07-12T17:55:28.962Z,27.746277
2018-07-12T17:56:28.879Z,27.695923
2018-07-12T17:57:28.841Z,27.585144
2018-07-12T17:58:28.783Z,27.524719
2018-07-12T17:59:28.725Z,27.474365
2018-07-12T18:00:28.663Z,27.40387
2018-07-12T18:01:28.609Z,27.333374
2018-07-12T18:02:28.557Z,27.323303
2018-07-12T18:03:28.519Z,27.252808
2018-07-12T18:04:28.442Z,27.222595
2018-07-12T18:05:28.384Z,27.212524
2018-07-12T18:06:28.336Z,27.202454
2018-07-12T18:07:28.268Z,27.202454
2018-07-12T18:08:28.208Z,27.182312
2018-07-12T18:09:28.160Z,27.202454
2018-07-12T18:10:28.101Z,27.212524
2018-07-12T18:11:28.065Z,27.222595
2018-07-12T18:12:27.996Z,27.222595
2018-07-12T18:13:27.940Z,27.252808
2018-07-12T18:14:27.980Z,27.272949
2018-07-12T18:15:27.832Z,27.272949
2018-07-12T18:16:27.771Z,27.272949
2018-07-12T18:17:27.737Z,27.272949
2018-07-12T18:18:27.687Z,27.272949
2018-07-12T18:19:27.630Z,27.262878
2018-07-12T18:20:27.573Z,27.222595
2018-07-12T18:21:27.548Z,27.222595
2018-07-12T18:22:27.468Z,27.222595
2018-07-12T18:23:27.417Z,27.202454
2018-07-12T18:24:27.363Z,27.212524
2018-07-12T18:25:27.297Z,27.1521
2018-07-12T18:26:27.245Z,27.172241
2018-07-12T18:27:27.217Z,27.182312
2018-07-12T18:28:27.134Z,27.1521
2018-07-12T18:29:27.073Z,27.182312
2018-07-12T18:30:27.007Z,27.172241
2018-07-12T18:31:26.972Z,27.121887
2018-07-12T18:32:26.911Z,27.101746
2018-07-12T18:33:26.864Z,27.142029
2018-07-12T18:34:26.804Z,27.111816
2018-07-12T18:35:26.735Z,27.111816
2018-07-12T18:36:26.699Z,27.071533
2018-07-12T18:37:26.699Z,27.03125
2018-07-12T18:38:26.597Z,27.021179
2018-07-12T18:39:26.559Z,27.001038
2018-07-12T18:40:26.501Z,26.90033
2018-07-12T18:41:26.447Z,26.880188
2018-07-12T18:42:26.388Z,26.809692
2018-07-12T18:43:26.349Z,26.77948
2018-07-12T18:44:26.293Z,26.729126
2018-07-12T18:45:26.261Z,26.678772
2018-07-12T18:46:26.201Z,26.598206
2018-07-12T18:47:26.141Z,26.578064
2018-07-12T18:48:26.108Z,26.588135
2018-07-12T18:49:26.053Z,26.517639
2018-07-12T18:50:26.016Z,26.477356
2018-07-12T18:51:25.988Z,26.40686
2018-07-12T18:52:25.932Z,26.376648
2018-07-12T18:53:25.876Z,26.336365
2018-07-12T18:54:25.839Z,26.286011
2018-07-12T18:55:25.787Z,26.225586
2018-07-12T18:56:25.762Z,26.205444
2018-07-12T18:57:25.740Z,26.094666
2018-07-12T18:58:25.675Z,26.094666
2018-07-12T18:59:25.622Z,26.02417
2018-07-12T19:00:25.604Z,25.983887
2018-07-12T19:01:25.550Z,25.873108
2018-07-12T19:02:25.508Z,25.832825
2018-07-12T19:03:25.492Z,25.722046
2018-07-12T19:04:25.428Z,25.691833
2018-07-12T19:05:25.395Z,25.601196
2018-07-12T19:06:25.367Z,25.550842
2018-07-12T19:07:25.333Z,25.480347
2018-07-12T19:08:25.281Z,25.440063
2018-07-12T19:09:25.268Z,25.359497
2018-07-12T19:10:25.214Z,25.319214
2018-07-12T19:11:25.172Z,25.309143
2018-07-12T19:12:25.124Z,25.248718
2018-07-12T19:13:25.074Z,25.228577
2018-07-12T19:14:25.045Z,25.228577
2018-07-12T19:15:25.086Z,25.178223
2018-07-12T19:16:24.958Z,25.137939
2018-07-12T19:17:24.917Z,25.057373
2018-07-12T19:18:24.894Z,25.037231
2018-07-12T19:19:24.851Z,25.007019
2018-07-12T19:20:24.840Z,24.986877
2018-07-12T19:21:24.828Z,24.835815
2018-07-12T19:22:24.768Z,24.76532
2018-07-12T19:23:24.750Z,24.704895
2018-07-12T19:24:24.732Z,24.755249
2018-07-12T19:25:24.702Z,24.725037
2018-07-12T19:26:24.703Z,24.664612
2018-07-12T19:27:24.648Z,24.51355
2018-07-12T19:28:24.615Z,24.483337
2018-07-12T19:29:24.602Z,24.473267
2018-07-12T19:30:24.586Z,24.453125
2018-07-12T19:31:24.566Z,24.26178
2018-07-12T19:32:24.558Z,24.211426
2018-07-12T19:33:24.563Z,24.231567
2018-07-12T19:34:24.589Z,24.030151
2018-07-12T19:35:24.461Z,24.080505
2018-07-12T19:36:24.488Z,24.030151
2018-07-12T19:37:24.467Z,23.858948
2018-07-12T19:38:24.458Z,23.808594
2018-07-12T19:39:24.482Z,23.687744
2018-07-12T19:40:24.472Z,23.738098
2018-07-12T19:41:24.497Z,23.627319